createdAt,value
2019-05-19T00:02:17.378Z,96914.59
2019-05-19T00:04:49.356Z,96918.50
2019-05-19T00:07:21.352Z,96915.42
2019-05-19T00:09:53.329Z,96914.59
2019-05-19T00:12:25.324Z,96919.92
2019-05-19T00:14:57.301Z,96923.78
2019-05-19T00:17:29.273Z,96919.19
2019-05-19T00:20:01.274Z,96922.16
2019-05-19T00:22:33.238Z,96919.45
2019-05-19T00:25:05.390Z,96910.73
2019-05-19T00:27:37.397Z,96905.50
2019-05-19T00:30:09.607Z,96909.73
2019-05-19T00:32:41.610Z,96906.95
2019-05-19T00:35:13.628Z,96904.09
2019-05-19T00:37:45.606Z,96893.33
2019-05-19T00:40:17.584Z,96897.71
2019-05-19T00:42:49.558Z,96900.16
2019-05-19T00:45:21.527Z,96900.19
2019-05-19T00:47:53.527Z,96901.53
2019-05-19T00:50:25.503Z,96896.69
2019-05-19T00:52:57.495Z,96899.26
2019-05-19T00:55:29.600Z,96891.85
2019-05-19T00:58:01.679Z,96893.33
2019-05-19T01:00:33.648Z,96889.52
2019-05-19T01:03:05.637Z,96885.44
2019-05-19T01:05:37.648Z,96879.77
2019-05-19T01:08:09.685Z,96884.80
2019-05-19T01:10:41.686Z,96886.95
2019-05-19T01:13:13.672Z,96883.78
2019-05-19T01:15:45.616Z,96887.95
2019-05-19T01:18:17.630Z,96876.83
2019-05-19T01:20:49.881Z,96885.00
2019-05-19T01:23:21.861Z,96882.56
2019-05-19T01:25:53.828Z,96886.50
2019-05-19T01:28:25.855Z,96885.31
2019-05-19T01:30:57.791Z,96884.57
2019-05-19T01:33:30.568Z,96891.13
2019-05-19T01:36:02.576Z,96889.58
2019-05-19T01:38:34.561Z,96889.52
2019-05-19T01:41:06.517Z,96886.67
2019-05-19T01:43:38.485Z,96890.45
2019-05-19T01:46:10.462Z,96891.38
2019-05-19T01:48:42.427Z,96890.28
2019-05-19T01:51:14.411Z,96880.70
2019-05-19T01:53:46.383Z,96878.97
2019-05-19T01:56:18.342Z,96875.58
2019-05-19T01:58:50.311Z,96876.77
2019-05-19T02:01:22.257Z,96874.64
2019-05-19T02:03:54.239Z,96880.55
2019-05-19T02:06:26.182Z,96877.95
2019-05-19T02:08:58.174Z,96875.23
2019-05-19T02:11:30.179Z,96870.84
2019-05-19T02:14:02.268Z,96875.91
2019-05-19T02:16:34.205Z,96875.01
2019-05-19T02:19:06.198Z,96876.64
2019-05-19T02:21:38.128Z,96872.25
2019-05-19T02:24:10.118Z,96870.67
2019-05-19T02:26:42.057Z,96869.88
2019-05-19T02:29:14.027Z,96872.56
2019-05-19T02:31:45.984Z,96869.11
2019-05-19T02:34:17.980Z,96869.23
2019-05-19T02:36:49.969Z,96868.17
2019-05-19T02:39:21.927Z,96869.49
2019-05-19T02:41:53.978Z,96865.61
2019-05-19T02:44:26.677Z,96867.22
2019-05-19T02:46:58.642Z,96867.28
2019-05-19T02:49:31.846Z,96866.70
2019-05-19T02:52:04.281Z,96865.33
2019-05-19T02:54:36.274Z,96870.03
2019-05-19T02:57:08.517Z,96870.55
2019-05-19T02:59:40.653Z,96866.41
2019-05-19T03:02:13.842Z,96864.71
2019-05-19T03:04:45.820Z,96872.08
2019-05-19T03:07:17.795Z,96871.70
2019-05-19T03:09:50.103Z,96873.02
2019-05-19T03:12:22.127Z,96872.66
2019-05-19T03:14:54.090Z,96871.73
2019-05-19T03:17:26.074Z,96878.97
2019-05-19T03:19:58.048Z,96881.34
2019-05-19T03:22:30.007Z,96875.06
2019-05-19T03:25:01.995Z,96882.92
2019-05-19T03:27:33.951Z,96880.57
2019-05-19T03:30:26.070Z,96872.75
2019-05-19T03:33:00.035Z,96871.95
2019-05-19T03:35:32.073Z,96875.37
2019-05-19T03:38:04.029Z,96875.33
2019-05-19T03:40:35.971Z,96879.64
2019-05-19T03:43:07.937Z,96877.84
2019-05-19T03:45:40.068Z,96881.48
2019-05-19T03:48:12.030Z,96887.48
2019-05-19T03:50:43.977Z,96884.85
2019-05-19T03:53:15.968Z,96882.70
2019-05-19T03:55:47.926Z,96888.91
2019-05-19T03:58:20.078Z,96883.12
2019-05-19T04:00:52.102Z,96889.28
2019-05-19T04:03:24.121Z,96889.73
2019-05-19T04:05:56.107Z,96886.30
2019-05-19T04:08:28.090Z,96884.16
2019-05-19T04:11:00.082Z,96879.98
2019-05-19T04:13:32.047Z,96886.05
2019-05-19T04:16:03.991Z,96889.33
2019-05-19T04:18:35.955Z,96891.73
2019-05-19T04:21:07.931Z,96896.23
2019-05-19T04:23:39.889Z,96898.95
2019-05-19T04:26:11.847Z,96903.25
2019-05-19T04:28:43.846Z,96904.38
2019-05-19T04:31:15.817Z,96898.66
2019-05-19T04:33:47.904Z,96895.65
2019-05-19T04:36:19.955Z,96890.86
2019-05-19T04:38:51.946Z,96899.00
2019-05-19T04:41:23.915Z,96898.70
2019-05-19T04:43:55.903Z,96898.97
2019-05-19T04:46:27.909Z,96898.47
2019-05-19T04:48:59.873Z,96897.87
2019-05-19T04:51:31.987Z,96895.53
2019-05-19T04:54:03.996Z,96899.58
2019-05-19T04:56:35.963Z,96898.36
2019-05-19T04:59:09.368Z,96901.38
2019-05-19T05:01:41.380Z,96902.24
2019-05-19T05:04:29.799Z,96899.87
2019-05-19T05:07:01.862Z,96890.94
2019-05-19T05:09:33.904Z,96891.72
2019-05-19T05:12:05.830Z,96887.76
2019-05-19T05:14:37.825Z,96889.59
2019-05-19T05:17:09.758Z,96883.23
2019-05-19T05:19:41.767Z,96880.81
2019-05-19T05:22:21.630Z,96886.58
2019-05-19T05:24:47.594Z,96875.84
2019-05-19T05:27:19.565Z,96870.22
2019-05-19T05:29:51.603Z,96870.05
2019-05-19T05:32:23.595Z,96869.81
2019-05-19T05:34:55.597Z,96868.80
2019-05-19T05:37:27.573Z,96870.00
2019-05-19T05:39:59.647Z,96872.86
2019-05-19T05:42:32.134Z,96859.77
2019-05-19T05:45:04.605Z,96862.80
2019-05-19T05:47:36.615Z,96868.86
2019-05-19T05:50:08.694Z,96868.27
2019-05-19T05:52:40.680Z,96864.79
2019-05-19T05:55:12.668Z,96864.33
2019-05-19T05:57:44.670Z,96867.98
2019-05-19T06:00:16.777Z,96868.87
2019-05-19T06:02:48.770Z,96869.02
2019-05-19T06:05:20.760Z,96870.23
2019-05-19T06:07:52.706Z,96871.66
2019-05-19T06:10:24.783Z,96867.62
2019-05-19T06:12:56.816Z,96861.28
2019-05-19T06:15:28.816Z,96860.06
2019-05-19T06:18:00.784Z,96856.62
2019-05-19T06:20:32.974Z,96858.85
2019-05-19T06:23:05.020Z,96865.36
2019-05-19T06:25:37.050Z,96863.98
2019-05-19T06:28:09.084Z,96867.00
2019-05-19T06:30:41.240Z,96866.91
2019-05-19T06:33:13.241Z,96864.28
2019-05-19T06:35:45.198Z,96872.33
2019-05-19T06:38:17.307Z,96877.91
2019-05-19T06:40:49.300Z,96874.06
2019-05-19T06:43:21.317Z,96866.41
2019-05-19T06:45:53.308Z,96874.00
2019-05-19T06:48:25.311Z,96876.56
2019-05-19T06:50:57.286Z,96876.66
2019-05-19T06:53:29.267Z,96873.00
2019-05-19T06:56:01.208Z,96870.38
2019-05-19T06:58:33.205Z,96870.00
2019-05-19T07:01:05.196Z,96870.51
2019-05-19T07:03:37.266Z,96869.16
2019-05-19T07:06:09.270Z,96873.50
2019-05-19T07:08:43.688Z,96871.39
2019-05-19T07:11:15.730Z,96871.00
2019-05-19T07:13:47.789Z,96874.52
2019-05-19T07:16:19.761Z,96868.06
2019-05-19T07:18:51.752Z,96861.56
2019-05-19T07:23:55.274Z,96863.30
2019-05-19T07:26:27.249Z,96861.98
2019-05-19T07:28:59.248Z,96859.39
2019-05-19T07:31:31.238Z,96858.98
2019-05-19T07:34:03.290Z,96857.23
2019-05-19T07:36:35.296Z,96849.87
2019-05-19T07:39:07.312Z,96848.53
2019-05-19T07:41:39.288Z,96846.66
2019-05-19T07:44:11.301Z,96851.56
2019-05-19T07:46:43.395Z,96852.19
2019-05-19T07:49:15.418Z,96848.45
2019-05-19T07:51:47.424Z,96847.97
2019-05-19T07:54:19.452Z,96849.39
2019-05-19T07:56:51.423Z,96847.89
2019-05-19T07:59:23.525Z,96852.80
2019-05-19T08:01:55.531Z,96851.13
2019-05-19T08:04:27.545Z,96845.15
2019-05-19T08:06:59.564Z,96849.16
2019-05-19T08:09:31.544Z,96851.45
2019-05-19T08:12:03.648Z,96849.35
2019-05-19T08:14:35.611Z,96849.80
2019-05-19T08:17:07.676Z,96847.61
2019-05-19T08:19:39.691Z,96845.92
2019-05-19T08:22:11.662Z,96839.45
2019-05-19T08:24:43.700Z,96841.59
2019-05-19T08:27:15.688Z,96838.58
2019-05-19T08:29:47.731Z,96835.52
2019-05-19T08:32:19.755Z,96833.69
2019-05-19T08:34:51.775Z,96834.06
2019-05-19T08:37:23.856Z,96835.86
2019-05-19T08:39:55.881Z,96837.14
2019-05-19T08:42:27.907Z,96841.48
2019-05-19T08:44:59.956Z,96838.06
2019-05-19T08:47:31.952Z,96832.02
2019-05-19T08:50:04.595Z,96834.22
2019-05-19T08:52:36.643Z,96838.13
2019-05-19T08:55:08.654Z,96841.99
2019-05-19T08:57:40.687Z,96836.31
2019-05-19T09:00:13.498Z,96838.09
2019-05-19T09:02:45.673Z,96829.36
2019-05-19T09:05:17.735Z,96825.50
2019-05-19T09:07:49.770Z,96819.86
2019-05-19T09:10:21.770Z,96817.13
2019-05-19T09:12:53.867Z,96815.30
2019-05-19T09:15:25.889Z,96811.31
2019-05-19T09:17:57.908Z,96805.86
2019-05-19T09:20:29.881Z,96798.58
2019-05-19T09:23:01.942Z,96794.92
2019-05-19T09:25:33.960Z,96795.11
2019-05-19T09:28:05.986Z,96795.52
2019-05-19T09:30:38.084Z,96797.72
2019-05-19T09:33:10.183Z,96805.14
2019-05-19T09:35:42.179Z,96801.74
2019-05-19T09:38:14.199Z,96799.95
2019-05-19T09:40:46.228Z,96794.95
2019-05-19T09:43:18.321Z,96798.05
2019-05-19T09:45:50.315Z,96794.30
2019-05-19T09:48:22.354Z,96795.97
2019-05-19T09:50:54.334Z,96797.64
2019-05-19T09:53:26.395Z,96794.70
2019-05-19T09:55:58.455Z,96797.95
2019-05-19T09:58:30.463Z,96794.70
2019-05-19T10:01:02.543Z,96795.32
2019-05-19T10:03:34.631Z,96791.05
2019-05-19T10:06:06.627Z,96787.45
2019-05-19T10:08:44.385Z,96782.23
2019-05-19T10:12:05.035Z,96786.72
2019-05-19T10:14:37.055Z,96784.67
2019-05-19T10:17:09.044Z,96776.36
2019-05-19T10:19:41.079Z,96777.14
2019-05-19T10:22:13.215Z,96775.34
2019-05-19T10:24:59.212Z,96763.06
2019-05-19T10:27:21.624Z,96771.30
2019-05-19T10:29:53.219Z,96764.94
2019-05-19T10:32:25.193Z,96768.45
2019-05-19T10:34:57.273Z,96761.48
2019-05-19T10:37:29.264Z,96760.22
2019-05-19T10:40:01.327Z,96765.31
2019-05-19T10:42:33.539Z,96768.92
2019-05-19T10:45:08.143Z,96773.62
2019-05-19T10:47:40.088Z,96767.55
2019-05-19T10:50:12.785Z,96770.39
2019-05-19T10:52:44.937Z,96768.95
2019-05-19T10:55:17.387Z,96756.76
2019-05-19T10:57:49.361Z,96759.09
2019-05-19T11:00:21.596Z,96758.11
2019-05-19T11:02:53.597Z,96756.72
2019-05-19T11:05:25.654Z,96749.64
2019-05-19T11:07:57.620Z,96748.14
2019-05-19T11:10:29.684Z,96750.91
2019-05-19T11:13:01.713Z,96746.41
2019-05-19T11:15:33.728Z,96752.05
2019-05-19T11:18:06.556Z,96748.34
2019-05-19T11:20:38.713Z,96738.76
2019-05-19T11:23:10.706Z,96748.20
2019-05-19T11:25:51.206Z,96743.47
2019-05-19T11:28:16.680Z,96743.72
2019-05-19T11:30:48.740Z,96742.38
2019-05-19T11:33:20.780Z,96746.33
2019-05-19T11:35:52.797Z,96747.95
2019-05-19T11:38:24.858Z,96742.93
2019-05-19T11:40:57.363Z,96741.66
2019-05-19T11:43:29.427Z,96744.77
2019-05-19T11:46:01.423Z,96743.30
2019-05-19T11:48:33.453Z,96742.77
2019-05-19T11:51:05.502Z,96739.94
2019-05-19T11:53:37.504Z,96739.98
2019-05-19T11:56:11.550Z,96740.06
2019-05-19T11:58:43.537Z,96741.14
2019-05-19T12:01:15.539Z,96736.38
2019-05-19T12:03:47.575Z,96734.44
2019-05-19T12:06:19.541Z,96724.98
2019-05-19T12:08:51.567Z,96732.02
2019-05-19T12:11:23.587Z,96730.52
2019-05-19T12:13:55.601Z,96727.90
2019-05-19T12:16:27.607Z,96730.00
2019-05-19T12:18:59.643Z,96726.02
2019-05-19T12:21:31.627Z,96724.09
2019-05-19T12:24:03.705Z,96729.22
2019-05-19T12:26:35.721Z,96723.64
2019-05-19T12:29:07.795Z,96719.73
2019-05-19T12:31:39.822Z,96712.45
2019-05-19T12:34:11.887Z,96711.38
2019-05-19T12:36:43.874Z,96703.23
2019-05-19T12:39:15.939Z,96702.23
2019-05-19T12:41:47.937Z,96697.08
2019-05-19T12:44:19.955Z,96692.19
2019-05-19T12:46:51.953Z,96697.27
2019-05-19T12:49:23.964Z,96688.44
2019-05-19T12:51:55.961Z,96688.39
2019-05-19T12:54:27.999Z,96682.74
2019-05-19T12:56:59.996Z,96695.86
2019-05-19T12:59:32.029Z,96685.80
2019-05-19T13:02:04.011Z,96686.55
2019-05-19T13:04:36.077Z,96674.45
2019-05-19T13:07:08.086Z,96676.14
2019-05-19T13:09:40.097Z,96675.87
2019-05-19T13:12:12.906Z,96663.09
2019-05-19T13:14:44.927Z,96662.92
2019-05-19T13:17:16.918Z,96655.41
2019-05-19T13:19:49.067Z,96660.31
2019-05-19T13:22:21.060Z,96663.02
2019-05-19T13:24:53.116Z,96658.40
2019-05-19T13:27:25.085Z,96652.89
2019-05-19T13:29:57.091Z,96659.55
2019-05-19T13:32:29.076Z,96657.92
2019-05-19T13:35:01.109Z,96658.86
2019-05-19T13:37:33.174Z,96650.95
2019-05-19T13:40:05.152Z,96645.60
2019-05-19T13:42:37.151Z,96639.80
2019-05-19T13:45:09.499Z,96641.30
2019-05-19T13:47:41.530Z,96640.39
2019-05-19T13:50:13.551Z,96636.41
2019-05-19T13:52:45.591Z,96630.92
2019-05-19T13:55:17.617Z,96635.62
2019-05-19T13:57:49.626Z,96636.39
2019-05-19T14:00:21.622Z,96631.84
2019-05-19T14:02:53.703Z,96635.48
2019-05-19T14:05:25.682Z,96635.08
2019-05-19T14:07:57.699Z,96631.20
2019-05-19T14:10:29.729Z,96621.09
2019-05-19T14:13:01.767Z,96624.65
2019-05-19T14:15:33.796Z,96619.25
2019-05-19T14:18:05.834Z,96620.01
2019-05-19T14:20:37.839Z,96631.02
2019-05-19T14:23:09.854Z,96629.00
2019-05-19T14:25:41.861Z,96628.19
2019-05-19T14:28:13.907Z,96623.78
2019-05-19T14:30:46.017Z,96626.30
2019-05-19T14:33:18.047Z,96630.56
2019-05-19T14:35:50.061Z,96639.23
2019-05-19T14:38:22.054Z,96633.61
2019-05-19T14:40:54.097Z,96627.10
2019-05-19T14:43:26.357Z,96630.05
2019-05-19T14:45:58.378Z,96630.11
2019-05-19T14:48:30.407Z,96634.70
2019-05-19T14:51:02.534Z,96640.48
2019-05-19T14:53:34.571Z,96645.37
2019-05-19T14:56:06.568Z,96657.38
2019-05-19T14:58:38.608Z,96666.98
2019-05-19T15:01:10.636Z,96684.50
2019-05-19T15:03:42.659Z,96716.98
2019-05-19T15:06:14.689Z,96737.73
2019-05-19T15:08:46.773Z,96747.07
2019-05-19T15:11:18.881Z,96756.30
2019-05-19T15:13:50.921Z,96732.42
2019-05-19T15:16:22.919Z,96720.06
2019-05-19T15:18:55.024Z,96706.53
2019-05-19T15:21:27.075Z,96691.91
2019-05-19T15:23:59.104Z,96680.47
2019-05-19T15:26:31.114Z,96694.00
2019-05-19T15:29:03.164Z,96701.11
2019-05-19T15:31:35.395Z,96710.19
2019-05-19T15:34:07.428Z,96715.85
2019-05-19T15:36:39.452Z,96723.55
2019-05-19T15:39:14.459Z,96720.11
2019-05-19T15:41:45.560Z,96720.20
2019-05-19T15:44:17.655Z,96709.88
2019-05-19T15:46:49.681Z,96701.70
2019-05-19T15:49:24.750Z,96698.40
2019-05-19T15:52:03.301Z,96701.84
2019-05-19T15:54:31.048Z,96704.67
2019-05-19T15:57:03.125Z,96709.44
2019-05-19T15:59:35.190Z,96708.08
2019-05-19T16:02:07.297Z,96709.79
2019-05-19T16:04:39.419Z,96709.70
2019-05-19T16:07:11.537Z,96704.89
2019-05-19T16:09:43.617Z,96705.45
2019-05-19T16:12:15.697Z,96698.31
2019-05-19T16:14:47.755Z,96694.70
2019-05-19T16:17:19.783Z,96691.03
2019-05-19T16:19:51.827Z,96686.05
2019-05-19T16:22:23.873Z,96694.56
2019-05-19T16:24:55.928Z,96693.70
2019-05-19T16:27:27.950Z,96687.35
2019-05-19T16:30:00.015Z,96694.83
2019-05-19T16:32:32.045Z,96703.63
2019-05-19T16:35:04.194Z,96686.83
2019-05-19T16:37:36.304Z,96684.81
2019-05-19T16:40:08.396Z,96689.76
2019-05-19T16:42:40.609Z,96694.14
2019-05-19T16:45:13.018Z,96692.94
2019-05-19T16:47:45.045Z,96689.50
2019-05-19T16:50:17.298Z,96690.02
2019-05-19T16:52:49.741Z,96688.77
2019-05-19T16:55:29.028Z,96680.63
2019-05-19T16:58:01.036Z,96679.65
2019-05-19T17:00:33.139Z,96682.39
2019-05-19T17:03:05.281Z,96683.83
2019-05-19T17:05:37.316Z,96682.42
2019-05-19T17:08:09.484Z,96688.05
2019-05-19T17:10:41.552Z,96686.37
2019-05-19T17:13:13.644Z,96687.94
2019-05-19T17:15:45.683Z,96685.79
2019-05-19T17:18:17.789Z,96688.33
2019-05-19T17:20:49.888Z,96697.28
2019-05-19T17:23:21.997Z,96696.42
2019-05-19T17:25:54.112Z,96698.96
2019-05-19T17:28:26.127Z,96697.20
2019-05-19T17:30:58.229Z,96702.01
2019-05-19T17:33:30.301Z,96693.80
2019-05-19T17:36:02.377Z,96695.95
2019-05-19T17:38:34.504Z,96691.95
2019-05-19T17:41:06.520Z,96696.59
2019-05-19T17:43:38.606Z,96696.55
2019-05-19T17:46:10.698Z,96703.04
2019-05-19T17:48:42.785Z,96703.47
2019-05-19T17:51:14.919Z,96712.16
2019-05-19T17:53:47.029Z,96717.22
2019-05-19T17:56:20.025Z,96729.47
2019-05-19T17:58:52.296Z,96735.87
2019-05-19T18:01:24.327Z,96733.23
2019-05-19T18:03:56.383Z,96736.33
2019-05-19T18:06:29.871Z,96738.91
2019-05-19T18:09:02.749Z,96735.42
2019-05-19T18:11:34.904Z,96735.33
2019-05-19T18:14:07.025Z,96733.66
2019-05-19T18:16:39.238Z,96730.75
2019-05-19T18:19:11.375Z,96731.03
2019-05-19T18:21:43.364Z,96719.28
2019-05-19T18:24:15.453Z,96719.61
2019-05-19T18:26:47.512Z,96721.33
2019-05-19T18:29:30.460Z,96727.61
2019-05-19T18:31:53.501Z,96724.45
2019-05-19T18:34:25.590Z,96724.45
2019-05-19T18:36:58.371Z,96727.41
2019-05-19T18:39:30.521Z,96730.48
2019-05-19T18:42:02.595Z,96735.62
2019-05-19T18:44:34.770Z,96744.21
2019-05-19T18:47:06.886Z,96745.59
2019-05-19T18:49:39.003Z,96753.87
2019-05-19T18:52:11.156Z,96754.88
2019-05-19T18:54:43.406Z,96743.78
2019-05-19T18:57:15.605Z,96741.76
2019-05-19T18:59:48.077Z,96747.83
2019-05-19T19:02:20.278Z,96751.01
2019-05-19T19:04:52.455Z,96759.23
2019-05-19T19:07:44.121Z,96763.09
2019-05-19T19:10:16.209Z,96754.81
2019-05-19T19:12:48.699Z,96755.30
2019-05-19T19:15:20.769Z,96757.88
2019-05-19T19:17:52.826Z,96754.49
2019-05-19T19:20:24.894Z,96763.25
2019-05-19T19:22:56.957Z,96773.72
2019-05-19T19:25:28.993Z,96771.48
2019-05-19T19:28:01.030Z,96770.63
2019-05-19T19:30:33.105Z,96760.30
2019-05-19T19:33:05.133Z,96768.09
2019-05-19T19:35:39.633Z,96761.28
2019-05-19T19:38:11.328Z,96753.23
2019-05-19T19:40:43.355Z,96755.45
2019-05-19T19:43:15.446Z,96761.39
2019-05-19T19:45:47.479Z,96792.52
2019-05-19T19:48:19.515Z,96795.73
2019-05-19T19:50:51.640Z,96784.16
2019-05-19T19:53:23.716Z,96794.84
2019-05-19T19:55:55.731Z,96802.57
2019-05-19T19:58:27.814Z,96802.27
2019-05-19T20:00:59.850Z,96794.23
2019-05-19T20:03:31.948Z,96793.86
2019-05-19T20:06:04.070Z,96798.73
2019-05-19T20:08:36.134Z,96796.17
2019-05-19T20:11:08.197Z,96787.91
2019-05-19T20:13:40.280Z,96781.95
2019-05-19T20:16:12.369Z,96782.73
2019-05-19T20:18:44.494Z,96783.56
2019-05-19T20:21:16.631Z,96786.88
2019-05-19T20:23:48.765Z,96781.18
2019-05-19T20:26:20.781Z,96777.84
2019-05-19T20:28:52.827Z,96773.62
2019-05-19T20:31:24.906Z,96774.97
2019-05-19T20:33:56.982Z,96775.02
2019-05-19T20:36:29.033Z,96779.73
2019-05-19T20:39:01.077Z,96782.21
2019-05-19T20:41:33.099Z,96785.64
2019-05-19T20:44:05.178Z,96785.70
2019-05-19T20:46:37.232Z,96775.88
2019-05-19T20:49:09.309Z,96777.97
2019-05-19T20:51:41.303Z,96776.30
2019-05-19T20:54:13.341Z,96776.68
2019-05-19T20:56:45.358Z,96775.39
2019-05-19T20:59:17.640Z,96770.34
2019-05-19T21:01:49.658Z,96765.41
2019-05-19T21:04:21.677Z,96764.91
2019-05-19T21:06:53.699Z,96756.72
2019-05-19T21:09:25.728Z,96752.85
2019-05-19T21:11:57.749Z,96754.98
2019-05-19T21:14:29.792Z,96756.72
2019-05-19T21:17:01.822Z,96761.87
2019-05-19T21:19:33.861Z,96768.29
2019-05-19T21:22:05.927Z,96770.21
2019-05-19T21:24:37.928Z,96774.00
2019-05-19T21:27:09.931Z,96782.05
2019-05-19T21:29:41.897Z,96790.67
2019-05-19T21:32:13.917Z,96792.40
2019-05-19T21:34:45.939Z,96794.06
2019-05-19T21:37:17.961Z,96806.94
2019-05-19T21:39:49.967Z,96815.13
2019-05-19T21:42:21.967Z,96811.66
2019-05-19T21:44:53.950Z,96816.02
2019-05-19T21:47:25.970Z,96816.00
2019-05-19T21:49:57.981Z,96810.86
2019-05-19T21:52:29.963Z,96812.95
2019-05-19T21:55:01.972Z,96808.70
2019-05-19T21:57:34.001Z,96805.14
2019-05-19T22:00:08.985Z,96805.02
2019-05-19T22:02:41.016Z,96801.48
2019-05-19T22:05:12.981Z,96801.34
2019-05-19T22:08:00.385Z,96800.86
2019-05-19T22:10:32.494Z,96797.34
2019-05-19T22:13:04.474Z,96787.42
2019-05-19T22:15:36.467Z,96791.28
2019-05-19T22:18:08.458Z,96789.88
2019-05-19T22:20:40.425Z,96790.54
2019-05-19T22:23:12.593Z,96800.41
2019-05-19T22:25:44.589Z,96811.97
2019-05-19T22:28:16.594Z,96807.59
2019-05-19T22:30:48.625Z,96812.27
2019-05-19T22:33:20.661Z,96811.70
2019-05-19T22:35:52.637Z,96809.48
2019-05-19T22:38:24.661Z,96811.63
2019-05-19T22:40:56.648Z,96812.50
2019-05-19T22:43:28.654Z,96819.42
2019-05-19T22:46:00.655Z,96825.59
2019-05-19T22:48:32.634Z,96832.19
2019-05-19T22:51:04.634Z,96823.34
2019-05-19T22:53:36.633Z,96823.97
2019-05-19T22:56:08.676Z,96824.39
2019-05-19T22:58:41.638Z,96819.41
2019-05-19T23:01:13.796Z,96813.08
2019-05-19T23:03:45.788Z,96811.72
2019-05-19T23:06:17.775Z,96808.78
2019-05-19T23:08:49.824Z,96807.63
2019-05-19T23:11:21.780Z,96806.22
2019-05-19T23:13:53.794Z,96804.12
2019-05-19T23:16:25.738Z,96803.66
2019-05-19T23:18:57.701Z,96800.94
2019-05-19T23:21:29.658Z,96812.45
2019-05-19T23:24:01.644Z,96818.08
2019-05-19T23:26:33.717Z,96814.55
2019-05-19T23:29:05.734Z,96811.12
2019-05-19T23:31:37.676Z,96809.83
2019-05-19T23:34:09.680Z,96824.39
2019-05-19T23:36:41.643Z,96828.25
2019-05-19T23:39:13.640Z,96826.45
2019-05-19T23:41:45.573Z,96820.31
2019-05-19T23:44:17.585Z,96824.98
2019-05-19T23:46:49.552Z,96820.81
2019-05-19T23:49:21.552Z,96826.84
2019-05-19T23:51:53.504Z,96819.12
2019-05-19T23:54:25.464Z,96820.05
2019-05-19T23:56:57.416Z,96812.77
2019-05-19T23:59:29.388Z,96813.74
